Time;durP1;ratioP1;P1;durP2;ratioP2;P2;SDS_P1;SDS_P2;PMS_P1;PMS_P2;Temp;Humidity;BMP_temperature;BMP_pressure;BME280_temperature;BME280_humidity;BME280_pressure;Samples;Min_cycle;Max_cycle;Signal;HPM_P1;HPM_P2
2021/05/29 00:01:42;;;;;;;18.65;10.65;;;10.70;99.90;;;;;;12386354;28;20053;-39
2021/05/29 00:07:45;;;;;;;18.50;11.23;;;10.70;99.90;;;;;;12384304;28;20134;-39
2021/05/29 00:13:47;;;;;;;13.70;11.55;;;10.70;99.90;;;;;;12383151;28;20467;-39
2021/05/29 00:19:49;;;;;;;22.58;12.05;;;10.70;99.90;;;;;;12381287;28;20532;-39
2021/05/29 00:25:51;;;;;;;22.13;12.88;;;10.60;99.90;;;;;;12378109;28;20104;-39
2021/05/29 00:31:53;;;;;;;18.45;12.68;;;10.60;99.90;;;;;;12381938;28;20062;-38
2021/05/29 00:37:54;;;;;;;18.02;12.85;;;10.90;99.90;;;;;;12390144;28;20548;-38
2021/05/29 00:43:56;;;;;;;20.77;13.60;;;10.70;99.90;;;;;;12388254;28;20706;-39
2021/05/29 00:50:00;;;;;;;21.90;12.95;;;10.50;99.90;;;;;;12389101;28;20058;-38
2021/05/29 00:56:04;;;;;;;17.92;12.77;;;10.60;99.90;;;;;;12381051;28;20066;-38
2021/05/29 01:02:08;;;;;;;22.50;12.57;;;10.60;99.90;;;;;;12397158;28;20124;-38
2021/05/29 01:08:10;;;;;;;23.10;14.25;;;10.60;99.90;;;;;;12433537;28;20122;-38
2021/05/29 01:14:12;;;;;;;22.42;13.55;;;10.50;99.90;;;;;;12443317;28;20115;-39
2021/05/29 01:20:15;;;;;;;24.27;13.95;;;10.60;99.90;;;;;;12442805;28;20049;-38
2021/05/29 01:26:17;;;;;;;17.50;12.30;;;10.40;99.90;;;;;;12445506;28;20087;-38
2021/05/29 01:32:22;;;;;;;25.33;15.57;;;10.50;99.90;;;;;;12440096;28;20052;-39
2021/05/29 01:38:26;;;;;;;24.30;17.27;;;10.40;99.90;;;;;;12436822;28;20046;-38
2021/05/29 01:44:28;;;;;;;32.42;18.55;;;10.30;99.90;;;;;;12438529;28;20100;-39
2021/05/29 01:50:30;;;;;;;24.25;14.82;;;10.40;99.90;;;;;;12447189;28;20073;-38
2021/05/29 01:56:32;;;;;;;24.88;15.13;;;10.50;99.90;;;;;;12438797;28;20079;-38
2021/05/29 02:02:34;;;;;;;22.63;14.13;;;10.50;99.90;;;;;;12442013;28;20063;-39
2021/05/29 02:08:36;;;;;;;24.08;14.48;;;10.50;99.90;;;;;;12440864;28;20391;-39
2021/05/29 02:14:38;;;;;;;27.13;14.85;;;10.50;99.90;;;;;;12434210;28;20141;-39
2021/05/29 02:20:46;;;;;;;27.15;13.48;;;10.40;99.90;;;;;;12440627;28;20550;-38
2021/05/29 02:26:48;;;;;;;24.92;14.43;;;10.40;99.90;;;;;;12445103;28;20141;-38
2021/05/29 02:32:50;;;;;;;21.55;13.27;;;10.30;99.90;;;;;;12444915;28;20076;-39
2021/05/29 02:38:52;;;;;;;19.77;13.18;;;10.40;99.90;;;;;;12443912;28;20391;-39
2021/05/29 02:44:54;;;;;;;21.10;14.15;;;10.40;99.90;;;;;;12443162;28;20528;-38
2021/05/29 02:50:56;;;;;;;21.70;13.70;;;10.40;99.90;;;;;;12441237;28;20088;-39
2021/05/29 02:56:58;;;;;;;17.70;12.32;;;10.30;99.90;;;;;;12440815;28;20467;-39
2021/05/29 03:03:02;;;;;;;23.60;13.30;;;10.20;99.90;;;;;;12443869;28;20041;-38
2021/05/29 03:09:05;;;;;;;18.77;12.25;;;10.20;99.90;;;;;;12431734;28;20449;-40
2021/05/29 03:15:10;;;;;;;22.02;13.75;;;10.10;99.90;;;;;;12440942;28;21024;-38
2021/05/29 03:21:12;;;;;;;25.27;13.15;;;9.90;99.90;;;;;;12438482;28;20049;-39
2021/05/29 03:27:17;;;;;;;17.70;11.48;;;9.90;99.90;;;;;;12437836;28;20446;-39
2021/05/29 03:33:19;;;;;;;17.75;12.27;;;9.90;99.90;;;;;;12436889;28;20699;-38
2021/05/29 03:39:22;;;;;;;19.25;11.38;;;10.00;99.90;;;;;;12440817;28;20054;-39
2021/05/29 03:45:24;;;;;;;22.58;13.60;;;10.10;99.90;;;;;;12435884;28;20045;-39
2021/05/29 03:51:26;;;;;;;18.73;13.52;;;10.10;99.90;;;;;;12440086;28;20041;-39
2021/05/29 03:57:28;;;;;;;22.42;13.18;;;10.20;99.90;;;;;;12434924;28;20061;-38
2021/05/29 04:03:30;;;;;;;20.48;12.20;;;10.20;99.90;;;;;;12443502;28;20046;-39
2021/05/29 04:09:31;;;;;;;20.50;13.07;;;10.20;99.90;;;;;;12432066;28;20626;-38
2021/05/29 04:15:33;;;;;;;23.98;12.68;;;10.20;99.90;;;;;;12436069;28;20339;-38
2021/05/29 04:21:35;;;;;;;21.23;13.10;;;10.30;99.90;;;;;;12443498;28;20132;-38
2021/05/29 04:27:38;;;;;;;20.65;13.27;;;10.30;99.90;;;;;;12439246;28;20095;-38
2021/05/29 04:33:39;;;;;;;23.65;13.20;;;10.40;99.90;;;;;;12443479;28;20057;-38
2021/05/29 04:39:43;;;;;;;20.90;12.30;;;10.60;99.90;;;;;;12441883;28;20546;-39
2021/05/29 04:45:45;;;;;;;18.70;13.55;;;10.60;99.90;;;;;;12441447;28;20127;-39
2021/05/29 04:51:48;;;;;;;18.75;12.95;;;10.80;99.90;;;;;;12451503;28;20046;-39
2021/05/29 04:57:50;;;;;;;21.05;14.02;;;10.80;99.90;;;;;;12451338;28;20062;-39
2021/05/29 05:03:52;;;;;;;22.35;14.25;;;10.80;99.90;;;;;;12447128;28;20065;-40
2021/05/29 05:09:53;;;;;;;22.13;13.57;;;10.70;99.90;;;;;;12449359;28;20159;-39
2021/05/29 05:15:56;;;;;;;20.67;13.00;;;10.70;99.90;;;;;;12449578;28;20137;-40
2021/05/29 05:21:58;;;;;;;24.67;14.65;;;10.70;99.90;;;;;;12441877;28;20060;-40
2021/05/29 05:28:00;;;;;;;21.88;14.10;;;10.80;99.90;;;;;;12438333;28;20133;-39
2021/05/29 05:34:08;;;;;;;21.65;14.02;;;10.80;99.90;;;;;;12444237;28;20462;-39
2021/05/29 05:40:10;;;;;;;21.15;14.15;;;10.90;99.90;;;;;;12443130;28;20056;-38
2021/05/29 05:46:13;;;;;;;20.20;13.65;;;10.80;99.90;;;;;;12449763;28;20041;-39
2021/05/29 05:52:15;;;;;;;24.15;14.57;;;10.60;99.90;;;;;;12446002;28;20908;-39
2021/05/29 05:58:17;;;;;;;18.77;13.30;;;10.60;99.90;;;;;;12442195;28;20065;-39
2021/05/29 06:04:19;;;;;;;20.08;12.65;;;10.70;99.90;;;;;;12447901;28;20049;-38
2021/05/29 06:10:21;;;;;;;18.60;12.48;;;10.80;99.90;;;;;;12450163;28;20741;-38
2021/05/29 06:22:43;;;;;;;20.17;11.32;;;10.50;99.90;;;;;;12443846;28;20136;-39
2021/05/29 06:28:46;;;;;;;19.20;11.27;;;10.70;99.90;;;;;;12436938;28;20248;-40
2021/05/29 06:34:47;;;;;;;15.70;11.15;;;10.60;99.90;;;;;;12439018;28;20045;-40
2021/05/29 06:40:50;;;;;;;16.38;10.75;;;10.60;99.90;;;;;;12437372;28;20133;-40
2021/05/29 06:46:51;;;;;;;17.52;10.85;;;10.60;99.90;;;;;;12441134;28;20132;-39
2021/05/29 06:52:56;;;;;;;15.90;10.95;;;10.60;99.90;;;;;;12440991;28;20053;-39
2021/05/29 06:58:58;;;;;;;17.63;10.90;;;10.60;99.90;;;;;;12439099;28;20137;-39
2021/05/29 07:05:01;;;;;;;15.52;11.93;;;10.60;99.90;;;;;;12442196;28;20712;-40
2021/05/29 07:11:04;;;;;;;16.02;11.00;;;10.70;99.90;;;;;;12443497;28;20103;-39
2021/05/29 07:17:07;;;;;;;17.45;9.70;;;10.60;99.90;;;;;;12438546;28;20053;-39
2021/05/29 07:23:09;;;;;;;16.40;9.95;;;10.70;99.90;;;;;;12437152;28;20046;-38
2021/05/29 07:29:11;;;;;;;14.65;9.80;;;10.90;99.90;;;;;;12443770;28;20858;-40
2021/05/29 07:35:13;;;;;;;14.55;9.35;;;11.00;99.90;;;;;;12437729;28;20136;-39
2021/05/29 07:41:15;;;;;;;13.95;9.30;;;10.80;99.90;;;;;;12436221;28;20806;-38
2021/05/29 07:47:18;;;;;;;12.75;9.43;;;10.70;99.90;;;;;;12442176;28;20046;-39
2021/05/29 07:53:20;;;;;;;13.68;9.30;;;10.90;99.90;;;;;;12436557;28;20057;-39
2021/05/29 07:59:22;;;;;;;10.93;8.07;;;11.00;99.90;;;;;;12435166;28;20108;-40
2021/05/29 08:05:24;;;;;;;15.77;8.57;;;11.10;99.90;;;;;;12430808;28;20095;-38
2021/05/29 08:11:26;;;;;;;16.42;9.20;;;10.80;99.90;;;;;;12434963;28;20062;-39
2021/05/29 08:17:28;;;;;;;14.98;9.02;;;10.80;99.90;;;;;;12442005;28;20134;-39
2021/05/29 08:23:30;;;;;;;13.27;8.80;;;11.20;99.90;;;;;;12440737;28;20092;-39
2021/05/29 08:29:31;;;;;;;10.48;7.10;;;11.30;99.90;;;;;;12439542;28;20049;-39
2021/05/29 08:35:35;;;;;;;14.27;9.00;;;11.40;99.90;;;;;;12438239;28;20053;-39
2021/05/29 08:41:38;;;;;;;11.38;7.40;;;11.60;99.90;;;;;;12421599;28;20133;-39
2021/05/29 08:47:40;;;;;;;11.98;8.18;;;11.70;99.90;;;;;;12434326;28;20118;-39
2021/05/29 08:54:08;;;;;;;14.65;9.07;;;11.90;99.90;;;;;;12430074;28;21018;-40
2021/05/29 09:00:14;;;;;;;14.00;8.05;;;12.00;99.90;;;;;;12418648;28;20049;-39
2021/05/29 09:06:37;;;;;;;13.32;8.43;;;11.60;99.90;;;;;;12422122;28;20179;-39
2021/05/29 09:13:00;;;;;;;13.65;8.93;;;11.90;99.90;;;;;;12424527;28;20049;-39
2021/05/29 09:19:02;;;;;;;13.85;8.55;;;11.80;99.90;;;;;;12428345;28;20161;-39
2021/05/29 09:25:09;;;;;;;11.27;7.80;;;12.10;99.90;;;;;;12425588;28;20053;-38
2021/05/29 09:31:14;;;;;;;10.38;7.75;;;12.30;99.90;;;;;;12431306;28;20447;-39
2021/05/29 09:37:20;;;;;;;19.73;8.40;;;12.20;99.90;;;;;;12437916;28;20111;-38
2021/05/29 09:43:22;;;;;;;14.50;8.60;;;12.10;99.90;;;;;;12429935;28;20053;-38
2021/05/29 09:49:45;;;;;;;14.25;8.73;;;12.00;99.90;;;;;;12430248;28;20379;-38
2021/05/29 09:55:46;;;;;;;10.95;7.10;;;12.00;99.90;;;;;;12433202;28;20479;-38
2021/05/29 10:01:54;;;;;;;12.40;7.90;;;12.20;99.90;;;;;;12437854;28;20049;-39
2021/05/29 10:07:57;;;;;;;13.07;7.43;;;12.00;99.90;;;;;;12426533;28;20422;-38
2021/05/29 10:13:59;;;;;;;12.18;8.05;;;12.20;99.90;;;;;;12432709;28;20133;-38
2021/05/29 10:20:03;;;;;;;13.65;8.50;;;12.20;99.90;;;;;;12434233;28;20054;-38
2021/05/29 10:26:05;;;;;;;17.57;8.83;;;11.90;99.90;;;;;;12434219;28;20508;-39
2021/05/29 10:32:15;;;;;;;11.20;7.70;;;11.50;99.90;;;;;;12439237;28;20052;-38
2021/05/29 10:38:19;;;;;;;12.73;7.13;;;11.50;99.90;;;;;;12438742;28;20099;-39
2021/05/29 10:44:35;;;;;;;10.48;7.88;;;11.80;99.90;;;;;;12436993;28;20411;-38
2021/05/29 10:51:06;;;;;;;11.65;7.68;;;12.20;99.90;;;;;;12435273;28;20481;-39
2021/05/29 10:57:08;;;;;;;10.95;7.55;;;12.20;99.90;;;;;;12440047;28;20118;-39
2021/05/29 11:03:16;;;;;;;12.35;8.20;;;12.10;99.90;;;;;;12430903;28;20448;-38
2021/05/29 11:09:38;;;;;;;11.55;7.65;;;12.20;99.90;;;;;;12431067;28;20048;-39
2021/05/29 11:15:57;;;;;;;13.82;7.57;;;12.30;99.90;;;;;;12429305;28;20054;-39
2021/05/29 11:22:11;;;;;;;13.93;7.20;;;12.20;99.90;;;;;;12431014;28;20089;-38
2021/05/29 11:28:23;;;;;;;11.82;7.10;;;12.50;99.90;;;;;;12427328;28;20136;-39
2021/05/29 11:34:40;;;;;;;11.52;7.60;;;12.50;99.90;;;;;;12433341;28;20052;-39
2021/05/29 11:40:42;;;;;;;10.20;7.00;;;12.70;99.90;;;;;;12427971;28;20049;-39
2021/05/29 11:46:44;;;;;;;10.13;6.20;;;12.70;99.90;;;;;;12434703;28;20052;-38
2021/05/29 11:52:49;;;;;;;14.40;7.20;;;12.80;99.90;;;;;;12433291;28;20046;-39
2021/05/29 11:58:54;;;;;;;13.20;6.90;;;13.10;99.90;;;;;;12430870;28;20057;-38
2021/05/29 12:04:56;;;;;;;10.05;6.78;;;13.10;99.90;;;;;;12434170;28;20106;-39
2021/05/29 12:10:58;;;;;;;11.27;6.78;;;13.20;99.90;;;;;;12430093;28;20041;-39
2021/05/29 12:17:04;;;;;;;16.27;7.80;;;13.30;99.90;;;;;;12429611;28;20057;-39
2021/05/29 12:23:06;;;;;;;14.30;7.70;;;12.60;99.90;;;;;;12431546;28;20782;-39
2021/05/29 12:29:11;;;;;;;9.70;6.55;;;13.10;99.90;;;;;;12438538;28;20052;-43
2021/05/29 12:35:36;;;;;;;10.45;6.57;;;13.40;99.90;;;;;;12431469;28;20106;-39
2021/05/29 12:41:38;;;;;;;9.20;6.40;;;13.50;99.90;;;;;;12432056;28;20045;-39
2021/05/29 12:47:56;;;;;;;7.78;5.32;;;13.60;99.90;;;;;;12432040;28;20099;-38
2021/05/29 12:53:57;;;;;;;10.80;7.10;;;14.10;99.90;;;;;;12426753;28;20139;-39
2021/05/29 13:00:20;;;;;;;9.60;6.65;;;14.10;99.90;;;;;;12430828;28;20046;-39
2021/05/29 13:13:15;;;;;;;9.48;5.97;;;14.60;99.90;;;;;;12442959;28;20094;-39
2021/05/29 13:19:20;;;;;;;9.70;6.82;;;14.70;99.90;;;;;;12438430;28;20059;-39
2021/05/29 13:25:21;;;;;;;;;;;15.40;99.90;;;;;;12437558;28;20731;-39
2021/05/29 13:31:23;;;;;;;11.85;6.78;;;15.50;99.90;;;;;;12426289;28;20464;-38
2021/05/29 13:37:25;;;;;;;9.43;6.93;;;15.00;99.90;;;;;;12432201;28;20504;-39
2021/05/29 13:43:27;;;;;;;11.10;5.63;;;14.40;99.90;;;;;;12433352;28;20099;-39
2021/05/29 13:49:29;;;;;;;12.38;6.30;;;14.70;99.90;;;;;;12430518;28;20057;-39
2021/05/29 13:55:31;;;;;;;9.57;6.18;;;15.30;99.90;;;;;;12426683;28;20046;-39
2021/05/29 14:01:33;;;;;;;10.50;6.05;;;15.80;99.90;;;;;;12431614;28;20052;-39
2021/05/29 14:07:36;;;;;;;14.55;6.60;;;15.50;99.90;;;;;;12431851;28;20057;-38
2021/05/29 14:13:38;;;;;;;9.18;6.18;;;15.60;99.90;;;;;;12425377;28;20057;-39
2021/05/29 14:19:40;;;;;;;10.43;6.78;;;15.70;99.90;;;;;;12425754;28;21829;-39
2021/05/29 14:25:42;;;;;;;12.07;6.15;;;15.80;99.90;;;;;;12423555;28;21540;-39
2021/05/29 14:31:45;;;;;;;8.02;6.07;;;16.70;99.90;;;;;;12424639;28;20063;-39
2021/05/29 14:37:47;;;;;;;9.83;6.43;;;17.20;99.90;;;;;;12426223;28;20065;-37
2021/05/29 14:43:49;;;;;;;8.52;6.43;;;17.50;99.90;;;;;;12428725;28;20486;-37
2021/05/29 14:49:51;;;;;;;8.80;5.63;;;16.30;99.90;;;;;;12423645;28;20674;-37
2021/05/29 14:55:53;;;;;;;10.68;6.18;;;16.40;99.90;;;;;;12421938;28;20517;-37
2021/05/29 15:01:58;;;;;;;9.10;5.97;;;16.30;99.90;;;;;;12430264;28;20049;-37
2021/05/29 15:08:00;;;;;;;8.48;5.78;;;16.90;99.90;;;;;;12421622;28;20042;-39
2021/05/29 15:14:02;;;;;;;9.68;6.20;;;17.80;99.90;;;;;;12387255;28;20070;-39
2021/05/29 15:20:04;;;;;;;8.70;5.75;;;16.90;99.90;;;;;;12372152;28;20402;-38
2021/05/29 15:26:09;;;;;;;11.63;6.45;;;16.70;99.90;;;;;;12376353;28;20049;-37
2021/05/29 15:32:12;;;;;;;11.93;6.80;;;16.50;99.90;;;;;;12367632;28;20487;-38
2021/05/29 15:38:15;;;;;;;8.53;6.07;;;16.00;99.90;;;;;;12376749;28;20054;-37
2021/05/29 15:44:17;;;;;;;9.57;6.07;;;15.90;99.90;;;;;;12378858;28;20052;-38
2021/05/29 15:50:21;;;;;;;10.90;6.20;;;16.20;99.90;;;;;;12376255;28;20061;-38
2021/05/29 15:56:24;;;;;;;9.40;5.97;;;16.40;99.90;;;;;;12375308;28;20123;-37
2021/05/29 16:02:26;;;;;;;9.10;6.05;;;16.00;99.90;;;;;;12379833;28;20050;-38
2021/05/29 16:08:29;;;;;;;11.20;6.10;;;16.30;99.90;;;;;;12380347;28;20046;-38
2021/05/29 16:14:32;;;;;;;11.07;6.38;;;16.10;99.90;;;;;;12372661;28;20065;-37
2021/05/29 16:20:34;;;;;;;10.38;5.43;;;16.00;99.90;;;;;;12379506;28;20054;-38
2021/05/29 16:26:36;;;;;;;11.82;6.50;;;16.60;99.90;;;;;;12370609;28;20050;-37
2021/05/29 16:32:44;;;;;;;9.40;5.95;;;16.10;99.90;;;;;;12376165;28;20105;-37
2021/05/29 16:38:46;;;;;;;8.45;5.80;;;15.80;99.90;;;;;;12375976;28;20556;-37
2021/05/29 16:44:50;;;;;;;6.50;4.95;;;15.50;99.90;;;;;;12381218;28;20050;-37
2021/05/29 16:50:58;;;;;;;6.90;4.40;;;15.50;99.90;;;;;;12382391;28;20104;-39
2021/05/29 16:57:01;;;;;;;6.60;4.20;;;16.40;99.90;;;;;;12383771;28;20077;-37
2021/05/29 17:03:02;;;;;;;10.43;4.72;;;17.00;99.90;;;;;;12380536;28;20046;-38
2021/05/29 17:09:05;;;;;;;9.63;4.40;;;17.10;99.90;;;;;;12384589;28;20444;-38
2021/05/29 17:15:07;;;;;;;6.82;4.70;;;16.80;99.90;;;;;;12381314;28;20107;-40
2021/05/29 17:21:09;;;;;;;8.38;4.57;;;16.60;99.90;;;;;;12389599;28;20079;-37
2021/05/29 17:27:11;;;;;;;8.10;4.28;;;17.80;99.90;;;;;;12429542;28;20052;-37
2021/05/29 17:33:13;;;;;;;7.55;3.80;;;18.50;99.90;;;;;;12402537;28;20137;-38
2021/05/29 17:39:15;;;;;;;5.57;3.80;;;19.50;99.90;;;;;;12382127;28;20084;-38
2021/05/29 17:45:17;;;;;;;5.88;3.92;;;18.90;99.90;;;;;;12382666;28;20050;-37
2021/05/29 17:51:19;;;;;;;6.60;3.73;;;19.60;99.90;;;;;;12383237;28;20555;-37
2021/05/29 17:57:21;;;;;;;8.48;3.80;;;19.10;99.90;;;;;;12377393;28;20100;-38
2021/05/29 18:03:23;;;;;;;7.20;3.70;;;17.90;99.90;;;;;;12379229;28;20053;-40
2021/05/29 18:09:25;;;;;;;7.05;3.85;;;17.00;99.90;;;;;;12384230;28;20131;-39
2021/05/29 18:15:27;;;;;;;10.63;3.90;;;16.20;99.90;;;;;;12383960;28;20556;-39
2021/05/29 18:21:29;;;;;;;9.88;3.67;;;16.00;99.90;;;;;;12382656;28;20108;-39
2021/05/29 18:27:31;;;;;;;5.10;3.55;;;15.60;99.90;;;;;;12383913;28;20050;-39
2021/05/29 18:33:38;;;;;;;6.03;3.83;;;15.30;99.90;;;;;;12383296;28;20054;-39
2021/05/29 18:39:41;;;;;;;6.82;4.40;;;15.00;99.90;;;;;;12385619;28;20086;-39
2021/05/29 18:45:43;;;;;;;11.07;4.37;;;14.70;99.90;;;;;;12385929;28;20046;-39
2021/05/29 18:51:45;;;;;;;8.98;4.43;;;14.50;99.90;;;;;;12378829;28;20050;-39
2021/05/29 18:57:54;;;;;;;9.90;4.10;;;14.70;99.90;;;;;;12381392;28;20057;-39
2021/05/29 19:03:56;;;;;;;7.05;4.38;;;14.60;99.90;;;;;;12377546;28;20061;-39
2021/05/29 19:09:59;;;;;;;8.80;4.40;;;14.40;99.90;;;;;;12389965;28;20070;-39
2021/05/29 19:16:01;;;;;;;7.85;3.80;;;14.10;99.90;;;;;;12381840;28;20074;-39
2021/05/29 19:22:12;;;;;;;7.00;4.35;;;13.90;99.90;;;;;;12381861;28;20050;-39
2021/05/29 19:28:18;;;;;;;7.78;4.90;;;13.80;99.90;;;;;;12384377;28;20513;-39
2021/05/29 19:40:44;;;;;;;10.43;4.80;;;13.50;99.90;;;;;;12382220;28;20115;-39
2021/05/29 20:24:48;;;;;;;8.10;6.32;;;12.10;99.90;;;;;;12380784;28;20060;-39
2021/05/29 20:30:51;;;;;;;9.75;6.55;;;11.70;99.90;;;;;;12383043;28;20095;-39
2021/05/29 20:36:55;;;;;;;9.07;6.88;;;;;;;;;;12376330;28;20154;-40
2021/05/29 20:42:57;;;;;;;8.63;5.97;;;11.30;99.90;;;;;;12379786;28;20084;-39
2021/05/29 20:48:59;;;;;;;8.70;5.85;;;11.40;99.90;;;;;;12379981;28;20099;-39
2021/05/29 20:55:01;;;;;;;11.77;7.13;;;11.30;99.90;;;;;;12378237;28;20081;-39
2021/05/29 21:01:03;;;;;;;14.25;8.50;;;11.20;99.90;;;;;;12379679;28;20054;-38
2021/05/29 21:07:09;;;;;;;14.65;8.95;;;11.00;99.90;;;;;;12386659;28;20097;-40
2021/05/29 21:13:11;;;;;;;15.45;8.90;;;11.00;99.90;;;;;;12382586;28;20065;-38
2021/05/29 21:25:33;;;;;;;10.60;8.82;;;11.00;99.90;;;;;;12378089;28;20372;-38
2021/05/29 21:31:35;;;;;;;13.70;10.02;;;11.00;99.90;;;;;;12383288;28;20084;-39
2021/05/29 21:37:38;;;;;;;17.02;10.77;;;11.00;99.90;;;;;;12385979;28;20058;-39
2021/05/29 21:43:43;;;;;;;17.15;11.30;;;10.90;99.90;;;;;;12386971;28;20073;-39
2021/05/29 21:49:45;;;;;;;15.80;10.45;;;10.90;99.90;;;;;;12386779;28;20145;-39
2021/05/29 21:55:47;;;;;;;15.02;9.55;;;11.00;99.90;;;;;;12381899;28;20053;-39
2021/05/29 22:01:49;;;;;;;12.75;10.02;;;11.10;99.90;;;;;;12387394;28;20402;-39
2021/05/29 22:07:51;;;;;;;15.50;9.65;;;10.80;99.90;;;;;;12386316;28;20062;-38
2021/05/29 22:20:05;;;;;;;;;;;10.30;99.90;;;;;;12383868;28;20049;-38
2021/05/29 22:32:29;;;;;;;17.17;10.07;;;10.10;99.90;;;;;;12413107;28;20077;-41
2021/05/29 22:38:31;;;;;;;13.00;9.48;;;10.20;99.90;;;;;;12388488;28;20148;-38
2021/05/29 22:44:33;;;;;;;13.13;9.18;;;10.30;99.90;;;;;;12384008;28;20057;-38
2021/05/29 22:50:35;;;;;;;14.63;9.32;;;10.20;99.90;;;;;;12385399;28;20401;-38
2021/05/29 22:56:38;;;;;;;11.50;9.23;;;10.30;99.90;;;;;;12384897;28;20058;-38
2021/05/29 23:02:40;;;;;;;12.27;9.25;;;10.20;99.90;;;;;;12385647;28;20759;-39
2021/05/29 23:08:42;;;;;;;14.30;9.90;;;9.90;99.90;;;;;;12381409;28;20051;-39
2021/05/29 23:14:44;;;;;;;15.07;10.18;;;9.90;99.90;;;;;;12381678;28;20494;-38
2021/05/29 23:20:46;;;;;;;13.48;9.65;;;9.90;99.90;;;;;;12386505;28;20566;-38
2021/05/29 23:26:48;;;;;;;13.30;9.73;;;10.00;99.90;;;;;;12383109;28;20112;-38
2021/05/29 23:32:50;;;;;;;13.02;9.82;;;9.90;99.90;;;;;;12381767;28;20046;-38
2021/05/29 23:38:52;;;;;;;11.45;9.05;;;9.90;99.90;;;;;;12385467;28;20670;-38
2021/05/29 23:44:54;;;;;;;13.98;9.60;;;10.10;99.90;;;;;;12383153;28;20060;-39
2021/05/29 23:50:56;;;;;;;14.63;9.57;;;10.00;99.90;;;;;;12384835;28;20058;-39
2021/05/29 23:56:57;;;;;;;13.90;9.77;;;9.90;99.90;;;;;;12387976;28;20084;-38
